sensor_id;sensor_type;location;lat;lon;timestamp;pressure;altitude;pressure_sealevel;temperature;humidity
57568;BME280;43403;51.948;5.922;2023-03-12T00:01:20;101138.19;;;2.48;95.13
57568;BME280;43403;51.948;5.922;2023-03-12T00:03:47;101141.72;;;2.47;90.73
57568;BME280;43403;51.948;5.922;2023-03-12T00:06:15;101137.94;;;2.53;92.64
57568;BME280;43403;51.948;5.922;2023-03-12T00:08:43;101143.88;;;2.55;92.95
57568;BME280;43403;51.948;5.922;2023-03-12T00:11:12;101139.44;;;2.57;90.88
57568;BME280;43403;51.948;5.922;2023-03-12T00:13:39;101131.56;;;2.58;92.24
57568;BME280;43403;51.948;5.922;2023-03-12T00:16:12;101130.28;;;2.66;94.35
57568;BME280;43403;51.948;5.922;2023-03-12T00:18:39;101131.03;;;2.68;94.98
57568;BME280;43403;51.948;5.922;2023-03-12T00:21:06;101126.81;;;2.67;92.40
57568;BME280;43403;51.948;5.922;2023-03-12T00:23:33;101126.69;;;2.68;90.63
57568;BME280;43403;51.948;5.922;2023-03-12T00:26:05;101105.97;;;2.68;89.66
57568;BME280;43403;51.948;5.922;2023-03-12T00:28:33;101114.31;;;2.73;87.82
57568;BME280;43403;51.948;5.922;2023-03-12T00:31:01;101118.47;;;2.76;89.21
57568;BME280;43403;51.948;5.922;2023-03-12T00:33:28;101113.97;;;2.80;89.75
57568;BME280;43403;51.948;5.922;2023-03-12T00:35:58;101113.28;;;2.76;88.93
57568;BME280;43403;51.948;5.922;2023-03-12T00:38:25;101111.56;;;2.76;89.16
57568;BME280;43403;51.948;5.922;2023-03-12T00:40:51;101098.50;;;2.78;89.95
57568;BME280;43403;51.948;5.922;2023-03-12T00:43:18;101096.00;;;2.76;89.19
57568;BME280;43403;51.948;5.922;2023-03-12T00:45:44;101091.38;;;2.82;89.82
57568;BME280;43403;51.948;5.922;2023-03-12T00:48:11;101095.53;;;2.84;87.63
57568;BME280;43403;51.948;5.922;2023-03-12T00:50:37;101092.94;;;2.84;90.09
57568;BME280;43403;51.948;5.922;2023-03-12T00:53:04;101092.41;;;2.79;86.11
57568;BME280;43403;51.948;5.922;2023-03-12T00:55:30;101089.97;;;2.76;87.56
57568;BME280;43403;51.948;5.922;2023-03-12T00:57:57;101076.13;;;2.77;87.54
57568;BME280;43403;51.948;5.922;2023-03-12T01:00:23;101080.94;;;2.83;87.89
57568;BME280;43403;51.948;5.922;2023-03-12T01:02:50;101071.03;;;2.75;85.97
57568;BME280;43403;51.948;5.922;2023-03-12T01:05:17;101071.03;;;2.75;85.79
57568;BME280;43403;51.948;5.922;2023-03-12T01:07:43;101080.56;;;2.75;87.35
57568;BME280;43403;51.948;5.922;2023-03-12T01:10:12;101086.94;;;2.69;85.14
57568;BME280;43403;51.948;5.922;2023-03-12T01:12:38;101085.66;;;2.76;88.27
57568;BME280;43403;51.948;5.922;2023-03-12T01:15:05;101081.47;;;2.74;87.93
57568;BME280;43403;51.948;5.922;2023-03-12T01:17:32;101082.31;;;2.74;88.37
57568;BME280;43403;51.948;5.922;2023-03-12T01:19:59;101086.56;;;2.75;88.96
57568;BME280;43403;51.948;5.922;2023-03-12T01:22:25;101081.38;;;2.75;87.56
57568;BME280;43403;51.948;5.922;2023-03-12T01:24:52;101075.38;;;2.75;87.35
57568;BME280;43403;51.948;5.922;2023-03-12T01:27:18;101070.84;;;2.79;87.98
57568;BME280;43403;51.948;5.922;2023-03-12T01:29:45;101065.66;;;2.79;87.07
57568;BME280;43403;51.948;5.922;2023-03-12T01:32:12;101058.91;;;2.76;86.34
57568;BME280;43403;51.948;5.922;2023-03-12T01:34:39;101051.31;;;2.73;86.38
57568;BME280;43403;51.948;5.922;2023-03-12T01:37:06;101057.31;;;2.73;87.40
57568;BME280;43403;51.948;5.922;2023-03-12T01:39:33;101054.91;;;2.70;85.97
57568;BME280;43403;51.948;5.922;2023-03-12T01:41:59;101048.44;;;2.77;88.22
57568;BME280;43403;51.948;5.922;2023-03-12T01:44:27;101033.00;;;2.76;86.47
57568;BME280;43403;51.948;5.922;2023-03-12T01:46:54;101034.84;;;2.74;86.55
57568;BME280;43403;51.948;5.922;2023-03-12T01:49:30;101047.25;;;2.83;88.45
57568;BME280;43403;51.948;5.922;2023-03-12T01:52:04;101036.22;;;2.80;87.54
57568;BME280;43403;51.948;5.922;2023-03-12T01:54:42;101037.50;;;2.72;85.51
57568;BME280;43403;51.948;5.922;2023-03-12T01:57:33;101037.44;;;2.74;86.36
57568;BME280;43403;51.948;5.922;2023-03-12T02:00:06;101042.22;;;2.66;85.89
57568;BME280;43403;51.948;5.922;2023-03-12T02:02:34;101047.41;;;2.66;86.40
57568;BME280;43403;51.948;5.922;2023-03-12T02:07:33;101038.44;;;2.71;89.53
57568;BME280;43403;51.948;5.922;2023-03-12T02:09:59;101038.16;;;2.62;86.86
57568;BME280;43403;51.948;5.922;2023-03-12T02:12:27;101032.06;;;2.63;88.60
57568;BME280;43403;51.948;5.922;2023-03-12T02:14:54;101025.88;;;2.65;88.71
57568;BME280;43403;51.948;5.922;2023-03-12T02:17:20;101012.84;;;2.67;90.10
57568;BME280;43403;51.948;5.922;2023-03-12T02:20:14;101017.72;;;2.71;89.81
57568;BME280;43403;51.948;5.922;2023-03-12T02:22:46;101014.69;;;2.79;90.33
57568;BME280;43403;51.948;5.922;2023-03-12T02:25:37;101011.28;;;2.79;89.98
57568;BME280;43403;51.948;5.922;2023-03-12T02:28:11;101005.97;;;2.80;90.04
57568;BME280;43403;51.948;5.922;2023-03-12T02:30:41;101006.72;;;2.82;90.41
57568;BME280;43403;51.948;5.922;2023-03-12T02:33:09;101002.28;;;2.84;89.13
57568;BME280;43403;51.948;5.922;2023-03-12T02:35:36;100996.19;;;2.85;90.88
57568;BME280;43403;51.948;5.922;2023-03-12T02:41:15;101002.56;;;2.94;94.27
57568;BME280;43403;51.948;5.922;2023-03-12T02:43:45;100981.81;;;2.94;95.91
57568;BME280;43403;51.948;5.922;2023-03-12T02:46:13;100976.09;;;2.89;93.70
57568;BME280;43403;51.948;5.922;2023-03-12T02:48:40;100974.16;;;2.92;93.25
57568;BME280;43403;51.948;5.922;2023-03-12T02:51:06;100969.72;;;2.94;92.04
57568;BME280;43403;51.948;5.922;2023-03-12T02:53:33;100976.94;;;2.89;89.15
57568;BME280;43403;51.948;5.922;2023-03-12T02:56:00;100967.31;;;2.91;89.21
57568;BME280;43403;51.948;5.922;2023-03-12T02:58:26;100964.53;;;2.94;89.98
57568;BME280;43403;51.948;5.922;2023-03-12T03:00:53;100952.31;;;2.96;88.48
57568;BME280;43403;51.948;5.922;2023-03-12T03:03:19;100953.88;;;2.99;89.48
57568;BME280;43403;51.948;5.922;2023-03-12T03:05:46;100950.16;;;3.03;89.88
57568;BME280;43403;51.948;5.922;2023-03-12T03:08:12;100953.50;;;3.05;90.22
57568;BME280;43403;51.948;5.922;2023-03-12T03:10:39;100952.75;;;3.03;86.32
57568;BME280;43403;51.948;5.922;2023-03-12T03:13:07;100953.41;;;3.07;89.43
57568;BME280;43403;51.948;5.922;2023-03-12T03:15:33;100951.13;;;3.02;86.82
57568;BME280;43403;51.948;5.922;2023-03-12T03:18:00;100947.66;;;3.02;87.57
57568;BME280;43403;51.948;5.922;2023-03-12T03:20:30;100941.47;;;3.04;85.91
57568;BME280;43403;51.948;5.922;2023-03-12T03:22:56;100937.94;;;3.05;86.36
57568;BME280;43403;51.948;5.922;2023-03-12T03:25:23;100951.84;;;3.04;84.54
57568;BME280;43403;51.948;5.922;2023-03-12T03:27:50;100930.16;;;3.05;87.67
57568;BME280;43403;51.948;5.922;2023-03-12T03:30:17;100931.13;;;3.04;84.80
57568;BME280;43403;51.948;5.922;2023-03-12T03:32:44;100939.81;;;3.03;85.71
57568;BME280;43403;51.948;5.922;2023-03-12T03:35:11;100932.69;;;2.92;85.07
57568;BME280;43403;51.948;5.922;2023-03-12T03:37:37;100931.22;;;2.88;84.04
57568;BME280;43403;51.948;5.922;2023-03-12T03:40:04;100931.13;;;2.90;85.17
57568;BME280;43403;51.948;5.922;2023-03-12T03:42:31;100927.03;;;2.86;87.60
57568;BME280;43403;51.948;5.922;2023-03-12T03:44:58;100930.19;;;2.91;88.54
57568;BME280;43403;51.948;5.922;2023-03-12T03:47:24;100934.09;;;2.84;86.01
57568;BME280;43403;51.948;5.922;2023-03-12T03:49:51;100931.22;;;2.88;88.33
57568;BME280;43403;51.948;5.922;2023-03-12T03:52:17;100925.66;;;2.80;85.02
57568;BME280;43403;51.948;5.922;2023-03-12T03:54:44;100922.34;;;2.78;87.15
57568;BME280;43403;51.948;5.922;2023-03-12T03:57:10;100918.28;;;2.88;88.86
57568;BME280;43403;51.948;5.922;2023-03-12T03:59:37;100915.13;;;2.83;87.80
57568;BME280;43403;51.948;5.922;2023-03-12T04:02:03;100910.28;;;2.91;90.57
57568;BME280;43403;51.948;5.922;2023-03-12T04:04:30;100912.25;;;2.88;88.54
57568;BME280;43403;51.948;5.922;2023-03-12T04:06:57;100914.94;;;2.86;90.33
57568;BME280;43403;51.948;5.922;2023-03-12T04:09:24;100919.84;;;2.91;90.34
57568;BME280;43403;51.948;5.922;2023-03-12T04:11:50;100911.84;;;2.94;90.72
57568;BME280;43403;51.948;5.922;2023-03-12T04:14:17;100904.94;;;2.94;90.93
57568;BME280;43403;51.948;5.922;2023-03-12T04:16:44;100899.09;;;2.91;90.35
57568;BME280;43403;51.948;5.922;2023-03-12T04:19:10;100890.38;;;2.92;91.68
57568;BME280;43403;51.948;5.922;2023-03-12T04:21:37;100892.06;;;2.93;92.87
57568;BME280;43403;51.948;5.922;2023-03-12T04:24:06;100877.81;;;3.00;93.66
57568;BME280;43403;51.948;5.922;2023-03-12T04:26:32;100874.28;;;3.01;93.13
57568;BME280;43403;51.948;5.922;2023-03-12T04:28:59;100884.00;;;2.97;93.35
57568;BME280;43403;51.948;5.922;2023-03-12T04:31:26;100889.47;;;2.93;93.65
57568;BME280;43403;51.948;5.922;2023-03-12T04:33:53;100884.56;;;3.03;95.99
57568;BME280;43403;51.948;5.922;2023-03-12T04:36:19;100884.22;;;2.94;95.77
57568;BME280;43403;51.948;5.922;2023-03-12T04:38:46;100872.41;;;3.03;96.25
57568;BME280;43403;51.948;5.922;2023-03-12T04:41:13;100866.84;;;3.09;97.44
57568;BME280;43403;51.948;5.922;2023-03-12T04:43:40;100863.09;;;3.01;97.52
57568;BME280;43403;51.948;5.922;2023-03-12T04:46:07;100859.47;;;3.03;99.28
57568;BME280;43403;51.948;5.922;2023-03-12T04:48:35;100858.16;;;3.10;100.00
57568;BME280;43403;51.948;5.922;2023-03-12T04:51:03;100862.78;;;3.05;98.67
57568;BME280;43403;51.948;5.922;2023-03-12T04:53:29;100875.09;;;3.02;99.00
57568;BME280;43403;51.948;5.922;2023-03-12T04:55:56;100873.94;;;2.93;100.00
57568;BME280;43403;51.948;5.922;2023-03-12T04:58:23;100869.88;;;2.89;100.00
57568;BME280;43403;51.948;5.922;2023-03-12T05:00:50;100864.31;;;2.95;100.00
57568;BME280;43403;51.948;5.922;2023-03-12T05:03:17;100858.81;;;3.00;100.00
57568;BME280;43403;51.948;5.922;2023-03-12T05:05:44;100858.72;;;3.01;100.00
57568;BME280;43403;51.948;5.922;2023-03-12T05:08:10;100859.47;;;3.03;100.00
57568;BME280;43403;51.948;5.922;2023-03-12T05:10:37;100849.00;;;3.05;100.00
57568;BME280;43403;51.948;5.922;2023-03-12T05:13:12;100839.81;;;3.13;100.00
57568;BME280;43403;51.948;5.922;2023-03-12T05:15:39;100839.06;;;3.11;100.00
57568;BME280;43403;51.948;5.922;2023-03-12T05:18:05;100826.97;;;3.12;100.00
57568;BME280;43403;51.948;5.922;2023-03-12T05:20:32;100820.66;;;3.16;100.00
57568;BME280;43403;51.948;5.922;2023-03-12T05:22:58;100812.56;;;3.21;100.00
57568;BME280;43403;51.948;5.922;2023-03-12T05:25:25;100804.38;;;3.27;100.00
57568;BME280;43403;51.948;5.922;2023-03-12T05:27:51;100812.63;;;3.33;100.00
57568;BME280;43403;51.948;5.922;2023-03-12T05:30:18;100807.22;;;3.36;100.00
57568;BME280;43403;51.948;5.922;2023-03-12T05:32:44;100800.81;;;3.42;100.00
57568;BME280;43403;51.948;5.922;2023-03-12T05:35:11;100788.66;;;3.43;100.00
57568;BME280;43403;51.948;5.922;2023-03-12T05:37:37;100776.09;;;3.36;100.00
57568;BME280;43403;51.948;5.922;2023-03-12T05:40:05;100785.25;;;3.42;100.00
57568;BME280;43403;51.948;5.922;2023-03-12T05:42:32;100776.22;;;3.48;100.00
57568;BME280;43403;51.948;5.922;2023-03-12T05:44:59;100772.38;;;3.41;100.00
57568;BME280;43403;51.948;5.922;2023-03-12T05:47:26;100781.59;;;3.45;100.00
57568;BME280;43403;51.948;5.922;2023-03-12T05:49:52;100783.69;;;3.52;100.00
57568;BME280;43403;51.948;5.922;2023-03-12T05:52:19;100779.22;;;3.54;100.00
57568;BME280;43403;51.948;5.922;2023-03-12T05:54:46;100778.50;;;3.52;100.00
57568;BME280;43403;51.948;5.922;2023-03-12T05:57:12;100783.81;;;3.51;100.00
57568;BME280;43403;51.948;5.922;2023-03-12T05:59:39;100778.00;;;3.47;100.00
57568;BME280;43403;51.948;5.922;2023-03-12T06:02:05;100781.41;;;3.48;100.00
57568;BME280;43403;51.948;5.922;2023-03-12T06:04:32;100775.59;;;3.44;100.00
57568;BME280;43403;51.948;5.922;2023-03-12T06:06:59;100771.34;;;3.43;100.00
57568;BME280;43403;51.948;5.922;2023-03-12T06:09:25;100767.09;;;3.42;100.00
57568;BME280;43403;51.948;5.922;2023-03-12T06:11:51;100760.97;;;3.43;100.00
57568;BME280;43403;51.948;5.922;2023-03-12T06:14:18;100771.34;;;3.43;100.00
57568;BME280;43403;51.948;5.922;2023-03-12T06:16:45;100771.13;;;3.46;100.00
57568;BME280;43403;51.948;5.922;2023-03-12T06:19:11;100764.91;;;3.49;100.00
57568;BME280;43403;51.948;5.922;2023-03-12T06:21:41;100772.41;;;3.53;100.00
57568;BME280;43403;51.948;5.922;2023-03-12T06:24:08;100769.09;;;3.51;100.00
57568;BME280;43403;51.948;5.922;2023-03-12T06:26:34;100760.66;;;3.48;100.00
57568;BME280;43403;51.948;5.922;2023-03-12T06:29:01;100763.44;;;3.45;100.00
57568;BME280;43403;51.948;5.922;2023-03-12T06:31:27;100766.59;;;3.50;100.00
57568;BME280;43403;51.948;5.922;2023-03-12T06:33:54;100770.94;;;3.49;100.00
57568;BME280;43403;51.948;5.922;2023-03-12T06:36:21;100771.63;;;3.39;100.00
57568;BME280;43403;51.948;5.922;2023-03-12T06:38:49;100778.28;;;3.30;100.00
57568;BME280;43403;51.948;5.922;2023-03-12T06:41:17;100776.69;;;3.27;100.00
57568;BME280;43403;51.948;5.922;2023-03-12T06:43:44;100776.28;;;3.21;100.00
57568;BME280;43403;51.948;5.922;2023-03-12T06:46:13;100773.25;;;3.14;100.00
57568;BME280;43403;51.948;5.922;2023-03-12T06:48:40;100764.63;;;3.13;100.00
57568;BME280;43403;51.948;5.922;2023-03-12T06:51:09;100750.84;;;3.13;100.00
57568;BME280;43403;51.948;5.922;2023-03-12T06:53:36;100747.22;;;3.15;100.00
57568;BME280;43403;51.948;5.922;2023-03-12T06:56:07;100749.31;;;3.10;100.00
57568;BME280;43403;51.948;5.922;2023-03-12T06:58:33;100767.22;;;3.13;100.00
57568;BME280;43403;51.948;5.922;2023-03-12T07:01:00;100760.31;;;3.14;100.00
57568;BME280;43403;51.948;5.922;2023-03-12T07:03:27;100755.41;;;3.09;100.00
57568;BME280;43403;51.948;5.922;2023-03-12T07:05:56;100747.66;;;3.22;100.00
57568;BME280;43403;51.948;5.922;2023-03-12T07:08:23;100740.94;;;3.20;100.00
57568;BME280;43403;51.948;5.922;2023-03-12T07:10:50;100735.03;;;3.17;100.00
57568;BME280;43403;51.948;5.922;2023-03-12T07:13:17;100733.34;;;3.16;100.00
57568;BME280;43403;51.948;5.922;2023-03-12T07:15:43;100737.47;;;3.19;100.00
57568;BME280;43403;51.948;5.922;2023-03-12T07:18:12;100731.28;;;3.22;100.00
57568;BME280;43403;51.948;5.922;2023-03-12T07:20:41;100729.19;;;3.27;100.00
57568;BME280;43403;51.948;5.922;2023-03-12T07:23:08;100721.38;;;3.41;100.00
57568;BME280;43403;51.948;5.922;2023-03-12T07:25:37;100715.94;;;3.44;100.00
57568;BME280;43403;51.948;5.922;2023-03-12T07:28:04;100711.81;;;3.42;100.00
57568;BME280;43403;51.948;5.922;2023-03-12T07:30:31;100718.97;;;3.38;100.00
57568;BME280;43403;51.948;5.922;2023-03-12T07:33:10;100711.28;;;3.36;100.00
57568;BME280;43403;51.948;5.922;2023-03-12T07:35:38;100704.03;;;3.42;100.00
57568;BME280;43403;51.948;5.922;2023-03-12T07:38:06;100696.47;;;3.51;100.00
57568;BME280;43403;51.948;5.922;2023-03-12T07:40:34;100709.94;;;3.44;100.00
57568;BME280;43403;51.948;5.922;2023-03-12T07:43:02;100703.09;;;3.43;100.00
57568;BME280;43403;51.948;5.922;2023-03-12T07:45:28;100700.81;;;3.38;100.00
57568;BME280;43403;51.948;5.922;2023-03-12T07:47:55;100709.22;;;3.42;100.00
57568;BME280;43403;51.948;5.922;2023-03-12T07:50:22;100695.22;;;3.31;100.00
57568;BME280;43403;51.948;5.922;2023-03-12T07:52:48;100689.59;;;3.25;100.00
57568;BME280;43403;51.948;5.922;2023-03-12T07:55:16;100691.78;;;3.31;100.00
57568;BME280;43403;51.948;5.922;2023-03-12T07:57:43;100694.06;;;3.35;100.00
57568;BME280;43403;51.948;5.922;2023-03-12T08:00:10;100704.13;;;3.40;100.00
57568;BME280;43403;51.948;5.922;2023-03-12T08:02:37;100703.94;;;3.43;100.00
57568;BME280;43403;51.948;5.922;2023-03-12T08:05:04;100709.91;;;3.31;100.00
57568;BME280;43403;51.948;5.922;2023-03-12T08:07:31;100705.38;;;3.34;100.00
57568;BME280;43403;51.948;5.922;2023-03-12T08:10:04;100699.25;;;3.48;100.00
57568;BME280;43403;51.948;5.922;2023-03-12T08:12:31;100700.28;;;3.33;100.00
57568;BME280;43403;51.948;5.922;2023-03-12T08:14:58;100711.38;;;3.35;100.00
57568;BME280;43403;51.948;5.922;2023-03-12T08:17:24;100720.91;;;3.34;100.00
57568;BME280;43403;51.948;5.922;2023-03-12T08:19:51;100710.44;;;3.36;100.00
57568;BME280;43403;51.948;5.922;2023-03-12T08:22:17;100720.41;;;3.42;100.00
57568;BME280;43403;51.948;5.922;2023-03-12T08:24:44;100722.69;;;3.47;100.00
57568;BME280;43403;51.948;5.922;2023-03-12T08:27:11;100726.63;;;3.52;100.00
57568;BME280;43403;51.948;5.922;2023-03-12T08:29:39;100716.25;;;3.52;100.00
57568;BME280;43403;51.948;5.922;2023-03-12T08:32:06;100715.63;;;3.49;100.00
57568;BME280;43403;51.948;5.922;2023-03-12T08:34:33;100704.53;;;3.47;100.00
57568;BME280;43403;51.948;5.922;2023-03-12T08:37:00;100706.75;;;3.53;100.00
57568;BME280;43403;51.948;5.922;2023-03-12T08:39:27;100706.19;;;3.61;100.00
57568;BME280;43403;51.948;5.922;2023-03-12T08:41:54;100708.06;;;3.59;100.00
57568;BME280;43403;51.948;5.922;2023-03-12T08:44:22;100708.41;;;3.67;100.00
57568;BME280;43403;51.948;5.922;2023-03-12T08:46:49;100708.50;;;3.65;100.00
57568;BME280;43403;51.948;5.922;2023-03-12T08:49:16;100713.59;;;3.67;100.00
57568;BME280;43403;51.948;5.922;2023-03-12T08:51:43;100723.72;;;3.70;100.00
57568;BME280;43403;51.948;5.922;2023-03-12T08:54:09;100718.25;;;3.74;100.00
57568;BME280;43403;51.948;5.922;2023-03-12T08:56:36;100720.13;;;3.72;100.00
57568;BME280;43403;51.948;5.922;2023-03-12T08:59:08;100723.84;;;3.68;100.00
57568;BME280;43403;51.948;5.922;2023-03-12T09:01:34;100711.19;;;3.76;100.00
57568;BME280;43403;51.948;5.922;2023-03-12T09:04:02;100716.88;;;3.82;100.00
57568;BME280;43403;51.948;5.922;2023-03-12T09:06:29;100723.84;;;3.81;100.00
57568;BME280;43403;51.948;5.922;2023-03-12T09:08:56;100721.56;;;3.76;100.00
57568;BME280;43403;51.948;5.922;2023-03-12T09:11:25;100725.81;;;3.78;100.00
57568;BME280;43403;51.948;5.922;2023-03-12T09:13:52;100721.97;;;3.83;100.00
57568;BME280;43403;51.948;5.922;2023-03-12T09:16:38;100725.69;;;3.92;100.00
57568;BME280;43403;51.948;5.922;2023-03-12T09:19:05;100729.03;;;3.94;100.00
57568;BME280;43403;51.948;5.922;2023-03-12T09:21:31;100723.72;;;3.95;100.00
57568;BME280;43403;51.948;5.922;2023-03-12T09:23:58;100725.06;;;4.01;100.00
57568;BME280;43403;51.948;5.922;2023-03-12T09:26:24;100720.59;;;4.03;100.00
57568;BME280;43403;51.948;5.922;2023-03-12T09:28:51;100719.34;;;4.09;100.00
57568;BME280;43403;51.948;5.922;2023-03-12T09:31:17;100727.03;;;4.10;100.00
57568;BME280;43403;51.948;5.922;2023-03-12T09:33:44;100719.72;;;4.15;100.00
57568;BME280;43403;51.948;5.922;2023-03-12T09:36:11;100722.13;;;4.19;100.00
57568;BME280;43403;51.948;5.922;2023-03-12T09:38:37;100726.38;;;4.20;100.00
57568;BME280;43403;51.948;5.922;2023-03-12T09:41:05;100710.38;;;4.26;100.00
57568;BME280;43403;51.948;5.922;2023-03-12T09:43:41;100712.09;;;4.38;100.00
57568;BME280;43403;51.948;5.922;2023-03-12T09:46:21;100719.78;;;4.40;100.00
57568;BME280;43403;51.948;5.922;2023-03-12T09:48:50;100717.56;;;4.46;100.00
57568;BME280;43403;51.948;5.922;2023-03-12T09:51:34;100711.47;;;4.59;100.00
57568;BME280;43403;51.948;5.922;2023-03-12T09:54:05;100710.22;;;4.64;100.00
57568;BME280;43403;51.948;5.922;2023-03-12T09:56:33;100712.25;;;4.72;100.00
57568;BME280;43403;51.948;5.922;2023-03-12T09:59:00;100717.00;;;4.78;100.00
57568;BME280;43403;51.948;5.922;2023-03-12T10:07:21;100726.53;;;4.90;100.00
57568;BME280;43403;51.948;5.922;2023-03-12T10:10:12;100724.19;;;4.99;100.00
57568;BME280;43403;51.948;5.922;2023-03-12T10:16:04;100718.91;;;5.11;100.00
57568;BME280;43403;51.948;5.922;2023-03-12T10:21:29;100720.63;;;5.24;100.00
57568;BME280;43403;51.948;5.922;2023-03-12T10:26:58;100708.13;;;5.40;100.00
57568;BME280;43403;51.948;5.922;2023-03-12T10:29:35;100706.94;;;5.44;100.00
57568;BME280;43403;51.948;5.922;2023-03-12T10:32:07;100708.25;;;5.50;100.00
57568;BME280;43403;51.948;5.922;2023-03-12T10:40:26;100703.19;;;5.82;100.00
57568;BME280;43403;51.948;5.922;2023-03-12T10:42:54;100693.72;;;5.92;100.00
57568;BME280;43403;51.948;5.922;2023-03-12T10:45:41;100695.50;;;6.03;100.00
57568;BME280;43403;51.948;5.922;2023-03-12T10:48:18;100695.72;;;6.11;100.00
57568;BME280;43403;51.948;5.922;2023-03-12T10:50:59;100695.00;;;6.21;100.00
57568;BME280;43403;51.948;5.922;2023-03-12T10:53:29;100698.69;;;6.29;100.00
57568;BME280;43403;51.948;5.922;2023-03-12T10:58:37;100694.72;;;6.46;100.00
57568;BME280;43403;51.948;5.922;2023-03-12T11:01:10;100684.38;;;6.56;100.00
57568;BME280;43403;51.948;5.922;2023-03-12T11:03:42;100675.81;;;6.65;100.00
57568;BME280;43403;51.948;5.922;2023-03-12T11:06:09;100688.94;;;6.75;100.00
57568;BME280;43403;51.948;5.922;2023-03-12T11:11:43;100692.28;;;6.98;100.00
57568;BME280;43403;51.948;5.922;2023-03-12T11:14:19;100694.97;;;7.08;100.00
57568;BME280;43403;51.948;5.922;2023-03-12T11:16:46;100704.06;;;7.13;100.00
57568;BME280;43403;51.948;5.922;2023-03-12T11:21:56;100701.94;;;7.28;100.00
57568;BME280;43403;51.948;5.922;2023-03-12T11:24:23;100698.13;;;7.32;100.00
57568;BME280;43403;51.948;5.922;2023-03-12T11:27:15;100693.53;;;7.46;100.00
57568;BME280;43403;51.948;5.922;2023-03-12T11:29:47;100683.28;;;7.54;100.00
57568;BME280;43403;51.948;5.922;2023-03-12T11:32:37;100691.16;;;7.64;100.00
57568;BME280;43403;51.948;5.922;2023-03-12T11:35:12;100702.34;;;7.76;100.00
57568;BME280;43403;51.948;5.922;2023-03-12T11:43:11;100713.59;;;8.07;100.00
57568;BME280;43403;51.948;5.922;2023-03-12T11:56:50;100717.84;;;8.48;100.00
57568;BME280;43403;51.948;5.922;2023-03-12T12:22:23;100667.22;;;8.98;100.00
57568;BME280;43403;51.948;5.922;2023-03-12T12:30:45;100669.78;;;9.18;100.00
57568;BME280;43403;51.948;5.922;2023-03-12T12:35:49;100682.56;;;9.21;100.00
57568;BME280;43403;51.948;5.922;2023-03-12T12:38:39;100668.94;;;9.17;100.00
57568;BME280;43403;51.948;5.922;2023-03-12T12:41:14;100670.63;;;9.18;100.00
57568;BME280;43403;51.948;5.922;2023-03-12T12:43:48;100670.47;;;9.20;100.00
57568;BME280;43403;51.948;5.922;2023-03-12T12:46:25;100665.09;;;9.21;100.00
57568;BME280;43403;51.948;5.922;2023-03-12T12:49:15;100655.72;;;9.19;100.00
57568;BME280;43403;51.948;5.922;2023-03-12T12:51:50;100661.66;;;9.21;100.00
57568;BME280;43403;51.948;5.922;2023-03-12T12:57:20;100657.22;;;9.31;100.00
57568;BME280;43403;51.948;5.922;2023-03-12T13:00:17;100655.31;;;9.23;100.00
57568;BME280;43403;51.948;5.922;2023-03-12T13:02:41;100660.28;;;9.17;100.00
57568;BME280;43403;51.948;5.922;2023-03-12T13:05:19;100661.09;;;9.17;100.00
57568;BME280;43403;51.948;5.922;2023-03-12T13:07:46;100651.72;;;9.24;100.00
57568;BME280;43403;51.948;5.922;2023-03-12T13:12:59;100643.56;;;9.37;100.00
57568;BME280;43403;51.948;5.922;2023-03-12T13:26:44;100626.03;;;9.47;100.00
57568;BME280;43403;51.948;5.922;2023-03-12T13:31:54;100617.31;;;9.57;100.00
57568;BME280;43403;51.948;5.922;2023-03-12T13:37:01;100620.41;;;9.70;100.00
57568;BME280;43403;51.948;5.922;2023-03-12T13:39:34;100623.28;;;9.77;100.00
57568;BME280;43403;51.948;5.922;2023-03-12T13:42:38;100623.16;;;9.78;100.00
57568;BME280;43403;51.948;5.922;2023-03-12T13:45:22;100622.97;;;9.80;100.00
57568;BME280;43403;51.948;5.922;2023-03-12T13:47:53;100604.22;;;9.84;100.00
57568;BME280;43403;51.948;5.922;2023-03-12T13:50:21;100609.31;;;9.86;100.00
57568;BME280;43403;51.948;5.922;2023-03-12T13:52:54;100619.19;;;9.92;100.00
57568;BME280;43403;51.948;5.922;2023-03-12T13:55:30;100630.03;;;9.97;100.00
57568;BME280;43403;51.948;5.922;2023-03-12T13:58:18;100623.84;;;9.98;100.00
57568;BME280;43403;51.948;5.922;2023-03-12T14:01:01;100623.53;;;10.01;100.00
57568;BME280;43403;51.948;5.922;2023-03-12T14:03:35;100628.63;;;10.03;100.00
57568;BME280;43403;51.948;5.922;2023-03-12T14:06:09;100641.41;;;10.16;100.00
57568;BME280;43403;51.948;5.922;2023-03-12T14:08:59;100637.41;;;10.39;100.00
57568;BME280;43403;51.948;5.922;2023-03-12T14:11:46;100627.72;;;10.58;100.00
57568;BME280;43403;51.948;5.922;2023-03-12T14:17:23;100634.16;;;10.63;100.00
57568;BME280;43403;51.948;5.922;2023-03-12T14:20:00;100634.16;;;10.63;100.00
57568;BME280;43403;51.948;5.922;2023-03-12T14:22:31;100635.38;;;10.69;100.00
57568;BME280;43403;51.948;5.922;2023-03-12T14:25:04;100644.66;;;10.63;100.00
57568;BME280;43403;51.948;5.922;2023-03-12T14:27:32;100639.63;;;10.70;100.00
57568;BME280;43403;51.948;5.922;2023-03-12T14:32:38;100647.06;;;10.75;100.00
57568;BME280;43403;51.948;5.922;2023-03-12T14:38:25;100652.81;;;10.78;100.00
57568;BME280;43403;51.948;5.922;2023-03-12T14:43:31;100675.66;;;10.68;100.00
57568;BME280;43403;51.948;5.922;2023-03-12T14:46:00;100658.28;;;10.67;100.00
57568;BME280;43403;51.948;5.922;2023-03-12T14:48:35;100658.75;;;10.62;100.00
57568;BME280;43403;51.948;5.922;2023-03-12T14:51:04;100666.16;;;10.67;100.00
57568;BME280;43403;51.948;5.922;2023-03-12T14:53:37;100672.91;;;10.69;100.00
57568;BME280;43403;51.948;5.922;2023-03-12T14:56:14;100677.34;;;10.69;100.00
57568;BME280;43403;51.948;5.922;2023-03-12T14:58:50;100680.84;;;10.60;100.00
57568;BME280;43403;51.948;5.922;2023-03-12T15:01:28;100680.19;;;10.58;100.00